Time;durP1;ratioP1;P1;durP2;ratioP2;P2;SDS_P1;SDS_P2;PMS_P1;PMS_P2;Temp;Humidity;BMP_temperature;BMP_pressure;BME280_temperature;BME280_humidity;BME280_pressure;Samples;Min_cycle;Max_cycle;Signal;HPM_P1;HPM_P2
2022/11/22 03:46:46;;;;;;;4.47;0.90;;;8.00;97.50;;;;;;5511729;23;89302;-75
2022/11/22 03:49:12;;;;;;;4.97;1.73;;;8.00;98.10;;;;;;4800956;29;86938;-74
2022/11/22 03:51:37;;;;;;;8.50;2.33;;;8.00;98.10;;;;;;4816378;29;86905;-75
2022/11/22 03:54:03;;;;;;;5.93;2.30;;;8.00;98.00;;;;;;4824760;29;86292;-74
2022/11/22 03:56:29;;;;;;;6.15;2.35;;;7.90;98.40;;;;;;4820258;29;86936;-74
2022/11/22 03:58:55;;;;;;;4.63;2.35;;;7.90;98.70;;;;;;4806906;29;87105;-75
2022/11/22 04:01:20;;;;;;;6.40;2.53;;;7.90;99.20;;;;;;4803499;29;86958;-75
2022/11/22 04:03:46;;;;;;;7.53;2.15;;;7.90;98.90;;;;;;4803233;29;86717;-74
2022/11/22 04:06:11;;;;;;;8.02;2.75;;;8.00;98.90;;;;;;4795682;29;88660;-73
2022/11/22 04:08:37;;;;;;;7.93;2.78;;;8.00;98.90;;;;;;4807065;29;88327;-74
2022/11/22 04:11:03;;;;;;;9.55;3.25;;;8.00;98.90;;;;;;4807476;29;86228;-75
2022/11/22 04:16:14;;;;;;;5.65;2.15;;;8.10;99.00;;;;;;4789535;29;86432;-74
2022/11/22 04:18:40;;;;;;;5.25;1.92;;;8.10;98.70;;;;;;4800196;29;86937;-74
2022/11/22 04:25:12;;;;;;;4.95;1.80;;;8.10;98.40;;;;;;4807315;29;85698;-74
2022/11/22 04:26:35;;;;;;;6.13;1.88;;;8.10;98.30;;;;;;4802851;29;89037;-74
2022/11/22 04:29:01;;;;;;;4.40;1.95;;;8.10;98.10;;;;;;4803226;29;87935;-75
2022/11/22 04:34:10;;;;;;;5.70;1.73;;;8.20;98.30;;;;;;4798563;29;87463;-75
2022/11/22 04:36:36;;;;;;;5.72;1.58;;;8.20;98.10;;;;;;4808866;29;87458;-76
2022/11/22 04:39:02;;;;;;;3.85;1.00;;;8.20;97.70;;;;;;4809980;29;87092;-75
2022/11/22 04:41:27;;;;;;;3.00;0.88;;;8.20;97.40;;;;;;4814436;29;87468;-76
2022/11/22 04:46:37;;;;;;;2.95;0.90;;;8.30;97.00;;;;;;4819157;29;87425;-75
2022/11/22 04:49:03;;;;;;;5.65;0.82;;;8.30;96.90;;;;;;4792897;29;86128;-76
2022/11/22 04:54:12;;;;;;;4.18;1.05;;;8.30;96.90;;;;;;4802921;29;87550;-75
2022/11/22 04:56:38;;;;;;;5.93;1.10;;;8.30;97.10;;;;;;4793032;29;88792;-75
2022/11/22 04:59:04;;;;;;;4.35;0.88;;;8.30;97.20;;;;;;4790416;29;88050;-75
2022/11/22 05:01:29;;;;;;;4.20;0.80;;;8.30;97.10;;;;;;4790328;29;86692;-75
2022/11/22 05:03:55;;;;;;;3.83;0.60;;;8.40;96.80;;;;;;4784135;29;87710;-76
2022/11/22 05:06:21;;;;;;;4.68;0.82;;;8.30;96.20;;;;;;4773884;29;86773;-75
2022/11/22 05:08:46;;;;;;;3.72;0.75;;;8.30;96.40;;;;;;4785531;29;87154;-75
2022/11/22 05:11:12;;;;;;;3.85;0.60;;;8.20;96.70;;;;;;4775258;29;86915;-76
2022/11/22 05:13:39;;;;;;;3.65;0.80;;;8.20;96.90;;;;;;4770229;29;86296;-74
2022/11/22 05:16:08;;;;;;;3.47;0.52;;;8.30;96.80;;;;;;4774147;29;87631;-75
2022/11/22 05:18:34;;;;;;;3.97;0.40;;;8.30;96.10;;;;;;4768868;29;87109;-75
2022/11/22 05:21:07;;;;;;;4.97;0.98;;;8.30;95.10;;;;;;4781932;29;87225;-76
2022/11/22 05:26:18;;;;;;;4.70;0.47;;;8.40;95.40;;;;;;4781126;29;88100;-76
2022/11/22 05:28:44;;;;;;;3.03;0.30;;;8.40;95.00;;;;;;4781397;29;86445;-74
2022/11/22 05:31:15;;;;;;;3.60;0.50;;;8.40;94.60;;;;;;4778290;29;87434;-75
2022/11/22 05:33:43;;;;;;;7.95;0.75;;;8.40;94.70;;;;;;4782700;29;86845;-75
2022/11/22 05:36:10;;;;;;;3.28;0.30;;;8.40;95.10;;;;;;4781589;29;87249;-75
2022/11/22 05:38:36;;;;;;;4.93;0.47;;;8.40;95.10;;;;;;4799097;29;87083;-75
2022/11/22 05:41:06;;;;;;;6.10;0.30;;;8.30;95.20;;;;;;4787639;29;86785;-76
2022/11/22 05:43:32;;;;;;;;;;;8.30;95.00;;;;;;4790673;29;86518;-76
2022/11/22 05:46:08;;;;;;;7.18;0.65;;;8.30;94.90;;;;;;4787920;29;87571;-76
2022/11/22 05:48:36;;;;;;;6.85;0.28;;;8.20;94.70;;;;;;4788043;29;88421;-75
2022/11/22 05:51:06;;;;;;;5.78;0.32;;;8.20;94.60;;;;;;4778385;29;86478;-75
2022/11/22 05:53:32;;;;;;;4.30;0.30;;;8.20;94.30;;;;;;4784579;29;86992;-74
2022/11/22 05:56:03;;;;;;;6.38;0.80;;;8.20;94.70;;;;;;4786673;29;90233;-75
2022/11/22 05:58:28;;;;;;;6.07;1.02;;;8.20;95.20;;;;;;4792271;29;87209;-76
2022/11/22 06:00:54;;;;;;;7.40;0.57;;;8.20;95.00;;;;;;4792575;29;87689;-74
2022/11/22 06:03:19;;;;;;;8.07;0.55;;;8.20;95.10;;;;;;4790607;29;85514;-74
2022/11/22 06:05:51;;;;;;;5.72;0.38;;;8.20;95.20;;;;;;4794533;29;87121;-75
2022/11/22 06:08:17;;;;;;;9.80;0.47;;;8.20;95.00;;;;;;4788672;29;86720;-76
2022/11/22 06:10:43;;;;;;;8.48;0.77;;;8.20;94.90;;;;;;4787333;29;87231;-74
2022/11/22 06:13:08;;;;;;;6.25;0.40;;;8.20;95.10;;;;;;4794984;29;86667;-76
2022/11/22 06:15:34;;;;;;;5.18;0.32;;;8.20;94.80;;;;;;4786220;29;86640;-75
2022/11/22 06:17:59;;;;;;;10.10;1.17;;;8.20;94.70;;;;;;4784551;29;86844;-77
2022/11/22 06:20:25;;;;;;;7.00;0.68;;;8.20;94.60;;;;;;4788666;29;86294;-75
2022/11/22 06:22:51;;;;;;;7.78;0.63;;;8.20;94.30;;;;;;4793410;29;86661;-78
2022/11/22 06:25:17;;;;;;;8.07;0.25;;;8.30;94.20;;;;;;4790497;29;87474;-76
2022/11/22 06:27:42;;;;;;;3.15;0.30;;;8.30;93.20;;;;;;4787894;29;87150;-77
2022/11/22 06:30:08;;;;;;;6.40;0.32;;;8.30;93.50;;;;;;4789970;29;86781;-78
2022/11/22 06:32:34;;;;;;;4.88;0.30;;;8.30;93.80;;;;;;4791194;29;86363;-76
2022/11/22 06:35:01;;;;;;;5.18;0.20;;;8.20;93.90;;;;;;4794999;29;88145;-77
2022/11/22 06:37:28;;;;;;;4.63;0.15;;;8.20;94.20;;;;;;4787033;29;87336;-76
2022/11/22 06:39:54;;;;;;;4.35;0.30;;;8.20;94.20;;;;;;4793533;29;86794;-77
2022/11/22 06:42:19;;;;;;;3.10;0.20;;;8.20;93.70;;;;;;4791117;29;86911;-76
2022/11/22 06:44:45;;;;;;;6.80;0.47;;;8.20;93.90;;;;;;4796788;29;87804;-76
2022/11/22 06:47:11;;;;;;;6.28;0.38;;;8.10;93.90;;;;;;4780593;29;87133;-77
2022/11/22 06:49:37;;;;;;;6.95;0.98;;;8.00;94.00;;;;;;4784639;29;86692;-78
2022/11/22 06:52:02;;;;;;;3.17;0.50;;;8.00;94.70;;;;;;4788736;29;85626;-76
2022/11/22 06:54:28;;;;;;;6.20;0.45;;;8.00;95.00;;;;;;4790451;29;87339;-77
2022/11/22 06:56:54;;;;;;;3.45;0.60;;;8.00;95.40;;;;;;4799205;29;86279;-76
2022/11/22 06:59:19;;;;;;;8.63;0.70;;;8.00;95.70;;;;;;4789508;29;87456;-76
2022/11/22 07:01:45;;;;;;;6.60;0.60;;;8.00;95.90;;;;;;4790109;29;86452;-77
2022/11/22 07:04:11;;;;;;;5.80;0.55;;;8.00;96.20;;;;;;4788670;29;88142;-76
2022/11/22 07:06:37;;;;;;;8.40;0.30;;;8.10;96.20;;;;;;4784320;29;88210;-75
2022/11/22 07:09:06;;;;;;;3.28;0.30;;;8.10;95.80;;;;;;4790105;29;86922;-77
2022/11/22 07:11:32;;;;;;;5.70;0.20;;;8.10;95.20;;;;;;4789679;29;86303;-76
2022/11/22 07:14:00;;;;;;;7.15;0.20;;;8.10;93.90;;;;;;4789475;29;87679;-76
2022/11/22 07:16:25;;;;;;;5.28;0.10;;;8.00;93.20;;;;;;4783033;29;87332;-76
2022/11/22 07:18:51;;;;;;;4.60;0.20;;;8.10;93.60;;;;;;4787661;29;86320;-76
2022/11/22 07:21:22;;;;;;;2.53;0.20;;;8.10;93.50;;;;;;4794118;29;87272;-76
2022/11/22 07:23:52;;;;;;;2.08;0.10;;;8.10;93.10;;;;;;4790196;29;88258;-75
2022/11/22 07:26:20;;;;;;;3.50;0.20;;;8.10;92.50;;;;;;4789702;29;87160;-75
2022/11/22 07:28:46;;;;;;;4.80;0.20;;;8.10;92.60;;;;;;4788608;29;86997;-75
2022/11/22 07:31:13;;;;;;;5.40;0.10;;;8.10;93.00;;;;;;4792092;29;86746;-75
2022/11/22 07:33:39;;;;;;;2.22;0.10;;;8.20;93.40;;;;;;4789221;29;87834;-76
2022/11/22 07:36:14;;;;;;;3.28;0.13;;;8.20;93.20;;;;;;4782028;29;86374;-77
2022/11/22 07:38:39;;;;;;;5.43;0.32;;;8.20;93.10;;;;;;4785939;29;86422;-77
2022/11/22 07:41:06;;;;;;;4.45;0.47;;;8.20;92.80;;;;;;4784798;29;87390;-76
2022/11/22 07:43:32;;;;;;;4.93;0.30;;;8.30;92.70;;;;;;4789032;29;87037;-76
2022/11/22 07:46:30;;;;;;;1.90;0.10;;;8.30;92.30;;;;;;4787603;29;87971;-75
2022/11/22 07:49:00;;;;;;;3.83;0.20;;;8.40;92.30;;;;;;4783178;29;87906;-74
2022/11/22 07:51:26;;;;;;;2.40;0.10;;;8.40;92.70;;;;;;4784270;29;86623;-76
2022/11/22 07:53:52;;;;;;;3.90;0.57;;;8.40;92.30;;;;;;4788967;29;87010;-76
2022/11/22 07:56:18;;;;;;;4.32;0.10;;;8.50;91.70;;;;;;4782063;29;87634;-76
2022/11/22 07:58:44;;;;;;;5.47;0.40;;;8.50;91.70;;;;;;4782683;29;86519;-75
2022/11/22 08:01:12;;;;;;;6.07;0.20;;;8.60;91.40;;;;;;4788318;29;87080;-77
2022/11/22 08:03:39;;;;;;;6.10;0.52;;;8.60;92.00;;;;;;4788709;29;86935;-77
2022/11/22 08:06:07;;;;;;;2.95;0.10;;;8.60;92.00;;;;;;4789081;29;86933;-75
2022/11/22 08:08:33;;;;;;;5.00;0.20;;;8.60;91.60;;;;;;4789535;29;87060;-74
2022/11/22 08:10:59;;;;;;;5.07;0.22;;;8.60;92.00;;;;;;4788428;29;87118;-77
2022/11/22 08:13:25;;;;;;;6.03;0.32;;;8.60;92.30;;;;;;4787789;29;87403;-76
2022/11/22 08:15:51;;;;;;;3.88;0.30;;;8.60;92.50;;;;;;4788112;29;87205;-75
2022/11/22 08:18:16;;;;;;;4.72;0.30;;;8.60;93.00;;;;;;4788995;29;86697;-76
2022/11/22 08:20:42;;;;;;;3.13;0.17;;;8.60;93.30;;;;;;4788398;29;86397;-76
2022/11/22 08:23:08;;;;;;;2.47;0.20;;;8.70;93.50;;;;;;4787661;29;86688;-76
2022/11/22 08:25:33;;;;;;;4.53;0.20;;;8.70;92.50;;;;;;4788920;29;87087;-75
2022/11/22 08:27:59;;;;;;;3.50;0.20;;;8.70;91.60;;;;;;4789003;29;86828;-79
2022/11/22 08:30:25;;;;;;;4.25;0.20;;;8.70;91.60;;;;;;4785132;29;85583;-76
2022/11/22 08:32:56;;;;;;;2.67;0.30;;;8.70;92.00;;;;;;4788402;29;87157;-77
2022/11/22 08:35:22;;;;;;;3.15;0.30;;;8.70;91.70;;;;;;4788195;29;86722;-76
2022/11/22 08:37:48;;;;;;;4.43;0.20;;;8.80;92.00;;;;;;4787619;29;87825;-74
2022/11/22 08:40:13;;;;;;;6.40;0.45;;;8.80;92.40;;;;;;4788393;29;86593;-76
2022/11/22 08:42:39;;;;;;;5.00;0.25;;;8.80;92.60;;;;;;4788676;29;87848;-76
2022/11/22 08:45:05;;;;;;;5.55;0.30;;;8.80;92.10;;;;;;4792505;29;86676;-76
2022/11/22 08:47:31;;;;;;;5.03;0.47;;;8.80;92.00;;;;;;4787259;29;86477;-74
2022/11/22 08:49:56;;;;;;;5.22;0.52;;;8.80;92.00;;;;;;4788147;29;86309;-76
2022/11/22 08:52:22;;;;;;;11.55;0.90;;;8.80;91.50;;;;;;4786726;29;87212;-75
2022/11/22 08:54:48;;;;;;;6.30;0.50;;;8.80;92.10;;;;;;4788499;29;86940;-75
2022/11/22 08:57:14;;;;;;;6.93;0.40;;;8.80;91.80;;;;;;4788349;29;86326;-75
2022/11/22 08:59:39;;;;;;;5.80;0.40;;;8.70;91.80;;;;;;4789096;29;86196;-74
2022/11/22 09:02:05;;;;;;;14.77;1.30;;;8.70;92.00;;;;;;4784683;29;88688;-75
2022/11/22 09:04:31;;;;;;;5.78;0.60;;;8.70;91.40;;;;;;4783728;29;87953;-73
2022/11/22 09:06:58;;;;;;;5.05;0.43;;;8.80;91.60;;;;;;4787004;29;86941;-77
2022/11/22 09:09:24;;;;;;;3.80;0.30;;;8.90;91.60;;;;;;4788191;29;87090;-76
2022/11/22 09:11:49;;;;;;;14.80;0.82;;;8.90;91.60;;;;;;4786829;29;87786;-76
2022/11/22 09:14:15;;;;;;;7.68;0.43;;;8.80;91.30;;;;;;4787574;29;87545;-77
2022/11/22 09:16:41;;;;;;;4.32;0.45;;;8.90;91.20;;;;;;4788062;29;86645;-76
2022/11/22 09:19:06;;;;;;;5.47;0.60;;;8.90;91.40;;;;;;4783653;29;85564;-76
2022/11/22 09:21:32;;;;;;;4.45;0.70;;;8.90;91.60;;;;;;4787233;29;87578;-76
2022/11/22 09:23:58;;;;;;;7.70;0.77;;;8.90;92.20;;;;;;4788311;29;87347;-75
2022/11/22 09:26:24;;;;;;;6.90;0.40;;;8.90;91.70;;;;;;4787339;29;87991;-75
2022/11/22 09:28:51;;;;;;;5.35;0.40;;;9.00;92.00;;;;;;4787913;29;86977;-76
2022/11/22 09:31:20;;;;;;;4.80;0.40;;;9.00;91.10;;;;;;4779446;29;87249;-77
2022/11/22 09:33:48;;;;;;;6.95;0.40;;;9.00;90.90;;;;;;4787799;29;87097;-75
2022/11/22 09:36:19;;;;;;;3.90;0.30;;;9.10;90.60;;;;;;4787811;29;86270;-76
2022/11/22 09:38:45;;;;;;;4.68;0.70;;;9.20;91.50;;;;;;4786867;29;86823;-76
2022/11/22 09:41:20;;;;;;;5.18;1.95;;;9.20;91.20;;;;;;4787204;29;86528;-75
2022/11/22 09:44:18;;;;;;;11.75;0.98;;;9.20;91.30;;;;;;4788066;29;87052;-76
2022/11/22 09:47:02;;;;;;;5.10;0.60;;;9.10;91.20;;;;;;4768615;29;86653;-75
2022/11/22 09:49:56;;;;;;;4.32;0.75;;;9.10;90.90;;;;;;4787652;29;87158;-76
2022/11/22 09:52:26;;;;;;;4.57;0.85;;;9.10;90.90;;;;;;4781673;29;87745;-75
2022/11/22 09:54:58;;;;;;;6.43;0.70;;;9.10;90.40;;;;;;4785945;29;87926;-75
2022/11/22 09:57:28;;;;;;;4.25;0.82;;;9.20;90.70;;;;;;4788897;29;86640;-76
2022/11/22 10:00:01;;;;;;;7.32;1.00;;;9.30;91.20;;;;;;4787539;29;86400;-75
2022/11/22 10:03:00;;;;;;;5.72;0.82;;;9.30;91.20;;;;;;4787303;29;87270;-78
2022/11/22 10:05:32;;;;;;;4.75;0.90;;;9.30;91.30;;;;;;4784856;29;86277;-76
2022/11/22 10:08:16;;;;;;;9.00;0.93;;;9.40;91.50;;;;;;4790994;29;87029;-76
2022/11/22 10:10:42;;;;;;;3.42;0.50;;;9.50;90.90;;;;;;4790013;29;87616;-76
2022/11/22 10:13:30;;;;;;;3.85;0.60;;;9.60;90.90;;;;;;4787866;29;87180;-76
2022/11/22 10:16:38;;;;;;;4.57;0.50;;;9.60;90.40;;;;;;4786356;29;86469;-76
2022/11/22 10:19:15;;;;;;;5.07;0.60;;;9.60;89.70;;;;;;4782640;29;87381;-76
2022/11/22 10:21:42;;;;;;;3.63;0.40;;;9.50;90.60;;;;;;4790539;29;86259;-76
2022/11/22 10:24:16;;;;;;;3.03;0.50;;;9.40;90.30;;;;;;4784442;29;87179;-75
2022/11/22 10:26:43;;;;;;;3.75;0.35;;;9.40;90.30;;;;;;4789861;29;87789;-76
2022/11/22 10:29:19;;;;;;;6.78;1.40;;;9.40;90.50;;;;;;4788912;29;86860;-75
2022/11/22 10:32:01;;;;;;;4.00;1.02;;;9.40;90.10;;;;;;4790191;29;86664;-77
2022/11/22 10:34:42;;;;;;;20.58;1.02;;;9.50;90.10;;;;;;4790717;29;87264;-76
2022/11/22 10:37:17;;;;;;;11.05;0.60;;;9.60;90.20;;;;;;4786349;29;86290;-76
2022/11/22 10:39:57;;;;;;;6.18;0.30;;;9.60;89.00;;;;;;4789741;29;86833;-77
2022/11/22 10:42:29;;;;;;;8.38;0.50;;;9.80;90.20;;;;;;4790134;29;87069;-76
2022/11/22 10:45:05;;;;;;;4.80;0.40;;;9.80;90.00;;;;;;4789215;29;88370;-76
2022/11/22 10:47:37;;;;;;;2.80;0.30;;;9.90;88.50;;;;;;4786193;29;88305;-76
2022/11/22 10:50:23;;;;;;;4.22;0.40;;;9.90;86.20;;;;;;4789495;29;87381;-77
2022/11/22 10:53:09;;;;;;;5.57;0.68;;;9.80;89.00;;;;;;4784458;29;86658;-77
2022/11/22 10:56:10;;;;;;;2.92;0.32;;;10.00;88.00;;;;;;4799137;29;86810;-76
2022/11/22 10:59:13;;;;;;;3.45;0.32;;;10.00;86.40;;;;;;4778087;29;86872;-76
2022/11/22 11:02:01;;;;;;;3.63;0.50;;;10.00;87.20;;;;;;4787530;29;86630;-76
2022/11/22 11:04:37;;;;;;;3.90;0.80;;;10.10;85.90;;;;;;4787090;29;86282;-75
2022/11/22 11:07:05;;;;;;;4.15;0.30;;;10.20;88.60;;;;;;4784053;29;87356;-77
2022/11/22 11:09:39;;;;;;;4.75;0.60;;;10.40;85.70;;;;;;4786428;29;88417;-76
2022/11/22 11:12:22;;;;;;;6.05;0.70;;;10.50;85.90;;;;;;4786590;29;87276;-77
2022/11/22 11:15:03;;;;;;;3.58;0.60;;;10.50;84.40;;;;;;4783938;29;86861;-76
2022/11/22 11:17:34;;;;;;;4.13;0.75;;;10.50;86.40;;;;;;4788446;29;87327;-75
2022/11/22 11:20:04;;;;;;;6.25;0.35;;;10.40;86.00;;;;;;4782687;29;86997;-75
2022/11/22 11:22:31;;;;;;;;;;;10.50;84.10;;;;;;4787779;29;86683;-76
2022/11/22 11:25:17;;;;;;;3.45;0.30;;;10.40;83.90;;;;;;4797202;29;87080;-78
2022/11/22 11:27:43;;;;;;;2.55;0.60;;;10.40;86.30;;;;;;4783381;29;87842;-76
2022/11/22 11:30:11;;;;;;;6.82;0.60;;;10.60;84.00;;;;;;4781165;29;87624;-75
2022/11/22 11:32:54;;;;;;;4.72;0.60;;;10.60;83.50;;;;;;4776960;29;86384;-76
2022/11/22 11:35:23;;;;;;;3.17;0.60;;;10.60;83.50;;;;;;4777959;29;88507;-76
2022/11/22 11:37:48;;;;;;;5.90;0.80;;;10.60;83.60;;;;;;4775991;29;87571;-78
2022/11/22 11:40:29;;;;;;;9.68;0.80;;;10.50;81.60;;;;;;4779811;29;88142;-77
2022/11/22 11:43:17;;;;;;;4.70;0.60;;;10.40;83.10;;;;;;4777995;29;86616;-77
2022/11/22 11:45:43;;;;;;;5.45;0.50;;;10.20;82.80;;;;;;4779372;29;86628;-78
2022/11/22 11:48:24;;;;;;;7.15;0.45;;;10.10;85.40;;;;;;4781932;29;87075;-76
2022/11/22 11:50:50;;;;;;;4.82;0.70;;;10.10;85.10;;;;;;4777173;29;86706;-78
2022/11/22 11:53:25;;;;;;;3.65;0.73;;;10.00;85.70;;;;;;4779427;29;87051;-77
2022/11/22 11:55:51;;;;;;;6.25;0.60;;;10.00;87.50;;;;;;4778035;29;85923;-76
2022/11/22 11:58:23;;;;;;;4.40;1.00;;;10.10;88.90;;;;;;4782839;29;87842;-76
2022/11/22 12:00:49;;;;;;;3.58;0.50;;;10.20;89.50;;;;;;4781381;29;86448;-75
2022/11/22 12:03:18;;;;;;;4.82;0.95;;;10.30;89.10;;;;;;4784063;29;87405;-77
2022/11/22 12:05:44;;;;;;;11.25;1.30;;;10.30;87.10;;;;;;4780384;29;87081;-77
2022/11/22 12:08:29;;;;;;;9.40;1.25;;;10.40;85.80;;;;;;4774303;29;87062;-77
2022/11/22 12:11:07;;;;;;;7.57;0.80;;;10.50;85.70;;;;;;4783986;29;87426;-77
2022/11/22 12:13:44;;;;;;;5.40;0.60;;;10.50;84.50;;;;;;4777716;29;86643;-77
2022/11/22 12:16:21;;;;;;;4.38;0.32;;;10.50;84.00;;;;;;4778899;29;86408;-77
2022/11/22 12:18:56;;;;;;;5.03;0.82;;;10.50;82.50;;;;;;4786374;29;87756;-77
2022/11/22 12:21:37;;;;;;;4.30;0.30;;;10.50;83.20;;;;;;4786462;29;86394;-77
2022/11/22 12:24:17;;;;;;;2.13;0.30;;;10.50;82.00;;;;;;4783428;29;86546;-77
2022/11/22 12:26:42;;;;;;;4.07;0.30;;;10.60;79.90;;;;;;4786808;29;87212;-76
2022/11/22 12:29:13;;;;;;;4.85;0.22;;;10.60;80.00;;;;;;4787180;29;87940;-77
2022/11/22 12:32:00;;;;;;;3.55;0.30;;;10.50;80.60;;;;;;4787139;29;87260;-77
2022/11/22 12:34:31;;;;;;;5.03;0.40;;;10.50;79.30;;;;;;4788505;29;86726;-77
2022/11/22 12:37:13;;;;;;;3.95;0.30;;;10.40;80.90;;;;;;4785269;29;86835;-77
2022/11/22 12:39:45;;;;;;;4.93;0.20;;;10.40;79.70;;;;;;4787301;29;87314;-77
2022/11/22 12:42:17;;;;;;;4.63;0.60;;;10.30;77.40;;;;;;4788658;29;87292;-77
2022/11/22 12:44:56;;;;;;;5.07;0.43;;;10.30;79.30;;;;;;4780451;29;87200;-77
2022/11/22 12:47:29;;;;;;;1.30;0.13;;;10.20;78.90;;;;;;4776542;29;86327;-77
2022/11/22 12:50:20;;;;;;;5.07;0.15;;;10.20;78.40;;;;;;4785035;29;88407;-77
2022/11/22 12:53:14;;;;;;;4.05;0.30;;;10.20;78.50;;;;;;4786154;29;87054;-79
2022/11/22 12:55:49;;;;;;;2.75;0.20;;;10.10;77.70;;;;;;4788104;29;87478;-76
2022/11/22 12:58:30;;;;;;;2.17;0.20;;;10.10;78.30;;;;;;4788230;29;86707;-76
2022/11/22 13:01:10;;;;;;;4.07;0.25;;;10.10;81.00;;;;;;4787208;29;87831;-78
2022/11/22 13:04:08;;;;;;;7.10;1.20;;;10.20;78.60;;;;;;4785340;29;86702;-77
2022/11/22 13:06:42;;;;;;;2.95;0.25;;;10.20;79.10;;;;;;4766584;29;87098;-77
2022/11/22 13:09:16;;;;;;;4.03;0.20;;;10.10;76.70;;;;;;4787399;29;86826;-77
2022/11/22 13:11:50;;;;;;;2.53;0.10;;;10.00;78.90;;;;;;4791662;29;87521;-76
2022/11/22 13:14:29;;;;;;;3.47;0.30;;;10.00;78.40;;;;;;4788326;29;87128;-78
2022/11/22 13:16:55;;;;;;;3.33;0.30;;;10.00;78.70;;;;;;4788479;29;86226;-77
2022/11/22 13:19:24;;;;;;;2.60;0.40;;;10.00;78.90;;;;;;4784384;29;87001;-77
2022/11/22 13:22:24;;;;;;;4.95;0.20;;;10.00;80.60;;;;;;4783749;29;88694;-76
2022/11/22 13:25:27;;;;;;;5.65;1.00;;;10.10;80.50;;;;;;4786787;29;88030;-76
2022/11/22 13:27:58;;;;;;;5.10;0.63;;;10.10;79.10;;;;;;4787508;29;86955;-76
2022/11/22 13:30:26;;;;;;;7.10;0.55;;;10.10;79.70;;;;;;4786681;29;86700;-76
2022/11/22 13:32:58;;;;;;;4.50;0.30;;;10.20;79.00;;;;;;4786847;29;87333;-76
2022/11/22 13:35:37;;;;;;;2.72;0.30;;;10.20;80.70;;;;;;4786387;29;87126;-76
2022/11/22 13:38:03;;;;;;;2.33;0.30;;;10.20;80.20;;;;;;4785985;29;86724;-77
2022/11/22 13:40:30;;;;;;;2.90;0.25;;;10.30;79.10;;;;;;4790433;29;85471;-76
2022/11/22 13:43:14;;;;;;;4.65;0.22;;;10.30;78.70;;;;;;4790453;29;87211;-76
2022/11/22 13:45:53;;;;;;;4.22;0.65;;;10.20;77.70;;;;;;4789881;29;86763;-76
2022/11/22 13:48:40;;;;;;;5.60;0.30;;;10.20;78.50;;;;;;4786396;29;88164;-76
2022/11/22 13:51:35;;;;;;;4.60;0.15;;;10.20;77.70;;;;;;4789698;29;86373;-77
2022/11/22 13:54:36;;;;;;;3.38;0.45;;;10.10;75.90;;;;;;4782737;29;87850;-76
2022/11/22 13:57:33;;;;;;;3.00;0.30;;;10.10;77.90;;;;;;4789579;29;86701;-77
2022/11/22 14:00:11;;;;;;;2.05;0.30;;;10.10;78.60;;;;;;4789575;29;87220;-76
2022/11/22 14:02:40;;;;;;;5.72;0.68;;;10.10;79.60;;;;;;4789170;29;86324;-77
2022/11/22 14:05:20;;;;;;;7.35;0.82;;;10.10;80.20;;;;;;4783049;29;87396;-77
2022/11/22 14:07:50;;;;;;;4.93;0.50;;;10.10;79.40;;;;;;4788230;29;86892;-77
2022/11/22 14:10:27;;;;;;;2.47;0.40;;;10.10;80.30;;;;;;4785139;29;86615;-77
2022/11/22 14:12:53;;;;;;;3.63;0.50;;;10.00;81.40;;;;;;4787840;29;87624;-76
2022/11/22 14:15:55;;;;;;;7.13;0.95;;;10.00;82.10;;;;;;4786960;29;87660;-77
2022/11/22 14:18:23;;;;;;;3.70;0.55;;;10.00;81.80;;;;;;4786024;29;87647;-77
2022/11/22 14:21:16;;;;;;;5.35;0.47;;;9.90;82.30;;;;;;4788623;29;86365;-77
2022/11/22 14:24:03;;;;;;;5.40;0.80;;;9.90;82.00;;;;;;4782344;29;86379;-77
2022/11/22 14:26:44;;;;;;;5.28;0.70;;;9.90;81.50;;;;;;4786207;29;87029;-77
2022/11/22 14:29:25;;;;;;;5.95;2.50;;;9.80;80.30;;;;;;4792422;29;86636;-76
2022/11/22 14:31:56;;;;;;;5.38;0.47;;;9.80;80.70;;;;;;4782901;29;86924;-76
2022/11/22 14:34:23;;;;;;;4.20;0.45;;;9.70;82.10;;;;;;4788920;29;85557;-76
2022/11/22 14:37:18;;;;;;;5.50;0.57;;;9.70;82.40;;;;;;4785793;29;88047;-77
2022/11/22 14:39:43;;;;;;;7.22;0.68;;;9.60;82.70;;;;;;4739912;29;87357;-77
2022/11/22 14:42:34;;;;;;;3.58;0.57;;;9.60;83.60;;;;;;4786861;29;89138;-76
2022/11/22 14:45:10;;;;;;;3.78;0.65;;;9.60;85.00;;;;;;4783500;29;87369;-76
2022/11/22 14:47:42;;;;;;;3.28;0.50;;;9.50;84.60;;;;;;4788305;29;87459;-76
2022/11/22 14:50:19;;;;;;;6.30;0.50;;;9.50;86.10;;;;;;4784253;29;86733;-76
2022/11/22 14:52:46;;;;;;;8.82;0.60;;;9.50;86.10;;;;;;4779841;29;87660;-77
2022/11/22 14:55:16;;;;;;;3.75;0.40;;;9.40;85.50;;;;;;4784530;29;86669;-77
2022/11/22 14:57:43;;;;;;;3.45;0.60;;;9.40;85.70;;;;;;4793005;29;87257;-76
2022/11/22 15:00:21;;;;;;;4.85;0.68;;;9.40;85.90;;;;;;4790122;29;86722;-76
2022/11/22 15:03:28;;;;;;;5.07;0.43;;;9.40;85.70;;;;;;4787035;29;86753;-76
2022/11/22 15:06:27;;;;;;;6.63;0.80;;;9.40;87.20;;;;;;4785424;29;86989;-77
2022/11/22 15:09:14;;;;;;;3.75;0.40;;;9.40;86.90;;;;;;4781473;29;88004;-76
2022/11/22 15:12:07;;;;;;;10.32;3.05;;;9.30;87.50;;;;;;4789706;29;87561;-75
2022/11/22 15:14:57;;;;;;;8.98;3.35;;;9.40;87.60;;;;;;4793759;29;86945;-76
2022/11/22 15:17:24;;;;;;;6.00;0.90;;;9.30;87.60;;;;;;4790046;29;86762;-76
2022/11/22 15:19:51;;;;;;;5.32;0.80;;;9.30;87.90;;;;;;4782163;29;88177;-76
2022/11/22 15:22:24;;;;;;;5.95;0.70;;;9.30;88.10;;;;;;4789818;29;86967;-76
2022/11/22 15:24:55;;;;;;;6.90;0.70;;;9.20;88.00;;;;;;4789111;29;86207;-76
2022/11/22 15:27:29;;;;;;;4.90;0.70;;;9.20;88.40;;;;;;4789268;29;85749;-76
2022/11/22 15:30:19;;;;;;;8.25;1.00;;;9.10;88.40;;;;;;4785950;29;87514;-77
2022/11/22 15:32:49;;;;;;;4.38;0.70;;;9.10;89.00;;;;;;4782419;29;87565;-75
2022/11/22 15:35:16;;;;;;;7.05;1.20;;;9.10;89.40;;;;;;4783181;29;87343;-76
2022/11/22 15:38:03;;;;;;;6.97;0.80;;;9.10;89.60;;;;;;4789564;29;86717;-77
2022/11/22 15:40:35;;;;;;;5.10;0.60;;;9.10;88.50;;;;;;4786536;29;88012;-77
2022/11/22 15:43:02;;;;;;;6.32;1.15;;;9.10;89.20;;;;;;4788053;29;86965;-75
2022/11/22 15:45:29;;;;;;;8.38;1.30;;;9.10;89.00;;;;;;4783908;29;86642;-75
2022/11/22 15:47:59;;;;;;;7.68;2.05;;;9.10;88.80;;;;;;4786400;29;89235;-76
2022/11/22 15:50:24;;;;;;;6.85;1.92;;;9.20;88.90;;;;;;4786135;29;87062;-77
2022/11/22 15:53:04;;;;;;;6.72;1.88;;;9.20;88.70;;;;;;4789388;29;87427;-76
2022/11/22 15:55:29;;;;;;;6.97;1.65;;;9.20;88.80;;;;;;4789646;29;86755;-78
2022/11/22 15:57:56;;;;;;;7.47;2.15;;;9.10;88.80;;;;;;4788959;29;86581;-77
2022/11/22 16:00:28;;;;;;;5.60;1.73;;;9.10;89.30;;;;;;4789129;29;88238;-76
2022/11/22 16:02:56;;;;;;;4.28;1.30;;;9.10;88.70;;;;;;4786007;29;87541;-76
2022/11/22 16:05:33;;;;;;;4.93;0.93;;;9.10;88.10;;;;;;4789024;29;86294;-76
2022/11/22 16:08:03;;;;;;;5.10;0.60;;;9.10;86.90;;;;;;4786183;29;86194;-76
2022/11/22 16:10:37;;;;;;;3.40;0.65;;;9.10;86.60;;;;;;4786583;29;87088;-76
2022/11/22 16:13:18;;;;;;;4.82;0.63;;;9.00;87.50;;;;;;4788661;29;86900;-78
2022/11/22 16:16:01;;;;;;;4.75;0.85;;;9.10;87.90;;;;;;4789115;29;86839;-75
2022/11/22 16:18:27;;;;;;;3.30;0.45;;;9.00;88.50;;;;;;4790301;29;86941;-77
2022/11/22 16:21:09;;;;;;;3.03;0.50;;;8.90;88.80;;;;;;4786676;29;86632;-76
2022/11/22 16:23:38;;;;;;;4.03;0.80;;;8.90;88.90;;;;;;4789453;29;87064;-77
2022/11/22 16:26:16;;;;;;;5.43;0.75;;;8.90;88.80;;;;;;4784023;29;87364;-77
2022/11/22 16:28:42;;;;;;;3.38;0.63;;;8.90;87.80;;;;;;4783434;29;87072;-77
2022/11/22 16:31:22;;;;;;;7.13;0.50;;;8.90;87.80;;;;;;4785733;29;87229;-76
2022/11/22 16:33:50;;;;;;;4.13;0.50;;;8.80;88.20;;;;;;4782718;29;88160;-76
2022/11/22 16:36:17;;;;;;;6.03;1.02;;;8.80;87.80;;;;;;4788627;29;86626;-76
2022/11/22 16:38:43;;;;;;;10.20;1.40;;;8.80;87.90;;;;;;4783656;29;86862;-77
2022/11/22 16:41:29;;;;;;;4.57;1.05;;;8.70;87.80;;;;;;4787869;29;87413;-78
2022/11/22 16:44:12;;;;;;;6.30;0.85;;;8.80;88.00;;;;;;4785193;29;88055;-77
2022/11/22 16:46:41;;;;;;;5.10;0.70;;;8.70;88.50;;;;;;4781959;29;86432;-77
2022/11/22 16:49:18;;;;;;;4.60;0.63;;;8.70;88.50;;;;;;4784907;29;86494;-77
2022/11/22 16:51:45;;;;;;;3.88;0.63;;;8.70;88.10;;;;;;4787955;29;88757;-77
2022/11/22 16:54:15;;;;;;;3.53;0.50;;;8.70;88.40;;;;;;4786746;29;87925;-77
2022/11/22 16:56:40;;;;;;;5.90;0.40;;;8.80;88.00;;;;;;4789620;29;86827;-77
2022/11/22 16:59:09;;;;;;;4.97;0.45;;;8.80;88.00;;;;;;4786050;29;86811;-77
2022/11/22 17:01:35;;;;;;;5.25;0.43;;;8.80;88.50;;;;;;4786775;29;88599;-77
2022/11/22 17:04:01;;;;;;;4.47;0.32;;;8.80;84.90;;;;;;4786390;29;87004;-77
2022/11/22 17:06:29;;;;;;;5.07;0.68;;;8.80;85.90;;;;;;4786232;29;86968;-76
2022/11/22 17:08:57;;;;;;;2.85;0.30;;;8.70;87.60;;;;;;4788090;29;85582;-76
2022/11/22 17:11:29;;;;;;;4.45;0.60;;;8.80;87.00;;;;;;4786488;29;87197;-77
2022/11/22 17:13:55;;;;;;;6.93;1.40;;;8.80;85.80;;;;;;4786484;29;87051;-77
2022/11/22 17:16:21;;;;;;;7.55;2.10;;;8.70;86.60;;;;;;4781648;29;88020;-78
2022/11/22 17:18:47;;;;;;;9.40;2.60;;;8.70;87.40;;;;;;4780837;29;86652;-78
2022/11/22 17:21:25;;;;;;;9.18;2.50;;;8.70;88.10;;;;;;4781874;29;87371;-77
2022/11/22 17:23:56;;;;;;;15.18;3.50;;;8.70;89.30;;;;;;4785111;29;87404;-77